sensor_id;sensor_type;location;lat;lon;timestamp;pressure;altitude;pressure_sealevel;temperature;humidity
72925;BME280;61070;50.794;7.054;2023-10-19T00:00:29;98953.47;;;10.77;87.31
72925;BME280;61070;50.794;7.054;2023-10-19T00:01:33;98952.16;;;10.82;86.73
72925;BME280;61070;50.794;7.054;2023-10-19T00:02:34;98952.63;;;10.87;87.13
72925;BME280;61070;50.794;7.054;2023-10-19T00:03:35;98954.19;;;10.79;86.89
72925;BME280;61070;50.794;7.054;2023-10-19T00:04:35;98957.53;;;10.70;87.42
72925;BME280;61070;50.794;7.054;2023-10-19T00:05:36;98947.38;;;10.76;87.26
72925;BME280;61070;50.794;7.054;2023-10-19T00:06:36;98950.63;;;10.80;87.04
72925;BME280;61070;50.794;7.054;2023-10-19T00:07:40;98946.69;;;10.74;87.28
72925;BME280;61070;50.794;7.054;2023-10-19T00:08:41;98942.25;;;10.75;87.73
72925;BME280;61070;50.794;7.054;2023-10-19T00:09:42;98946.69;;;10.74;87.61
72925;BME280;61070;50.794;7.054;2023-10-19T00:10:48;98945.72;;;10.75;87.33
72925;BME280;61070;50.794;7.054;2023-10-19T00:11:55;98941.66;;;10.71;87.73
72925;BME280;61070;50.794;7.054;2023-10-19T00:12:56;98946.78;;;10.73;87.85
72925;BME280;61070;50.794;7.054;2023-10-19T00:14:05;98932.72;;;10.85;87.35
72925;BME280;61070;50.794;7.054;2023-10-19T00:15:14;98948.69;;;10.82;87.34
72925;BME280;61070;50.794;7.054;2023-10-19T00:16:15;98939.38;;;10.78;87.81
72925;BME280;61070;50.794;7.054;2023-10-19T00:17:22;98939.75;;;10.84;87.79
72925;BME280;61070;50.794;7.054;2023-10-19T00:18:26;98929.97;;;10.86;87.89
72925;BME280;61070;50.794;7.054;2023-10-19T00:19:27;98932.47;;;10.77;87.83
72925;BME280;61070;50.794;7.054;2023-10-19T00:20:30;98923.97;;;10.73;88.15
72925;BME280;61070;50.794;7.054;2023-10-19T00:21:49;98922.66;;;10.79;88.08
72925;BME280;61070;50.794;7.054;2023-10-19T00:22:54;98925.53;;;10.76;87.99
72925;BME280;61070;50.794;7.054;2023-10-19T00:23:57;98917.88;;;10.73;88.16
72925;BME280;61070;50.794;7.054;2023-10-19T00:24:57;98914.06;;;10.77;88.32
72925;BME280;61070;50.794;7.054;2023-10-19T00:26:00;98913.50;;;10.84;87.80
72925;BME280;61070;50.794;7.054;2023-10-19T00:27:05;98921.25;;;10.75;87.93
72925;BME280;61070;50.794;7.054;2023-10-19T00:28:15;98923.03;;;10.74;88.34
72925;BME280;61070;50.794;7.054;2023-10-19T00:29:17;98924.94;;;10.83;88.66
72925;BME280;61070;50.794;7.054;2023-10-19T00:30:33;98926.00;;;10.81;88.43
72925;BME280;61070;50.794;7.054;2023-10-19T00:31:36;98928.78;;;10.91;87.96
72925;BME280;61070;50.794;7.054;2023-10-19T00:32:40;98915.75;;;10.89;87.92
72925;BME280;61070;50.794;7.054;2023-10-19T00:33:40;98923.88;;;10.86;87.99
72925;BME280;61070;50.794;7.054;2023-10-19T00:34:41;98928.78;;;10.91;88.27
72925;BME280;61070;50.794;7.054;2023-10-19T00:35:43;98924.13;;;10.94;88.22
72925;BME280;61070;50.794;7.054;2023-10-19T00:37:07;98930.78;;;10.98;87.51
72925;BME280;61070;50.794;7.054;2023-10-19T00:38:08;98933.19;;;10.90;87.88
72925;BME280;61070;50.794;7.054;2023-10-19T00:39:26;98933.06;;;10.92;88.47
72925;BME280;61070;50.794;7.054;2023-10-19T00:40:27;98920.75;;;10.92;88.29
72925;BME280;61070;50.794;7.054;2023-10-19T00:41:35;98934.38;;;10.97;88.22
72925;BME280;61070;50.794;7.054;2023-10-19T00:42:35;98922.56;;;11.03;88.35
72925;BME280;61070;50.794;7.054;2023-10-19T00:43:42;98927.31;;;10.98;87.85
72925;BME280;61070;50.794;7.054;2023-10-19T00:44:43;98924.69;;;10.98;88.05
72925;BME280;61070;50.794;7.054;2023-10-19T00:45:49;98924.34;;;11.13;87.63
72925;BME280;61070;50.794;7.054;2023-10-19T00:46:52;98924.81;;;11.07;87.42
72925;BME280;61070;50.794;7.054;2023-10-19T00:48:00;98920.41;;;11.08;87.52
72925;BME280;61070;50.794;7.054;2023-10-19T00:49:02;98921.00;;;11.11;87.50
72925;BME280;61070;50.794;7.054;2023-10-19T00:50:07;98922.44;;;11.16;87.19
72925;BME280;61070;50.794;7.054;2023-10-19T00:51:14;98934.63;;;11.17;87.41
72925;BME280;61070;50.794;7.054;2023-10-19T00:52:29;98931.75;;;11.20;87.40
72925;BME280;61070;50.794;7.054;2023-10-19T00:53:34;98928.28;;;11.08;87.42
72925;BME280;61070;50.794;7.054;2023-10-19T00:54:35;98927.44;;;11.07;87.77
72925;BME280;61070;50.794;7.054;2023-10-19T00:55:38;98928.06;;;11.00;87.82
72925;BME280;61070;50.794;7.054;2023-10-19T00:56:39;98920.19;;;11.00;88.16
72925;BME280;61070;50.794;7.054;2023-10-19T00:57:42;98937.84;;;11.20;87.50
72925;BME280;61070;50.794;7.054;2023-10-19T00:58:46;98935.94;;;11.11;88.01
72925;BME280;61070;50.794;7.054;2023-10-19T00:59:53;98940.84;;;11.16;87.57
72925;BME280;61070;50.794;7.054;2023-10-19T01:00:54;98936.28;;;11.18;87.26
72925;BME280;61070;50.794;7.054;2023-10-19T01:01:55;98931.50;;;11.23;87.16
72925;BME280;61070;50.794;7.054;2023-10-19T01:03:04;98925.78;;;11.29;86.92
72925;BME280;61070;50.794;7.054;2023-10-19T01:04:05;98921.00;;;11.23;87.31
72925;BME280;61070;50.794;7.054;2023-10-19T01:05:05;98930.31;;;11.16;87.34
72925;BME280;61070;50.794;7.054;2023-10-19T01:06:06;98921.00;;;11.11;87.78
72925;BME280;61070;50.794;7.054;2023-10-19T01:07:10;98927.94;;;11.12;87.49
72925;BME280;61070;50.794;7.054;2023-10-19T01:08:14;98923.66;;;11.00;88.04
72925;BME280;61070;50.794;7.054;2023-10-19T01:09:24;98929.97;;;11.09;87.91
72925;BME280;61070;50.794;7.054;2023-10-19T01:10:27;98923.50;;;11.13;87.67
72925;BME280;61070;50.794;7.054;2023-10-19T01:11:28;98930.81;;;11.09;87.89
72925;BME280;61070;50.794;7.054;2023-10-19T01:12:28;98929.59;;;11.02;88.00
72925;BME280;61070;50.794;7.054;2023-10-19T01:13:49;98923.28;;;11.05;88.31
72925;BME280;61070;50.794;7.054;2023-10-19T01:15:11;98925.19;;;11.14;87.96
72925;BME280;61070;50.794;7.054;2023-10-19T01:16:18;98924.81;;;11.07;87.86
72925;BME280;61070;50.794;7.054;2023-10-19T01:17:21;98922.44;;;11.04;88.12
72925;BME280;61070;50.794;7.054;2023-10-19T01:18:22;98920.41;;;11.08;88.17
72925;BME280;61070;50.794;7.054;2023-10-19T01:19:23;98915.28;;;11.06;87.99
72925;BME280;61070;50.794;7.054;2023-10-19T01:21:30;98914.03;;;11.33;87.15
72925;BME280;61070;50.794;7.054;2023-10-19T01:22:37;98913.56;;;11.28;87.30
72925;BME280;61070;50.794;7.054;2023-10-19T01:23:38;98909.41;;;11.25;87.45
72925;BME280;61070;50.794;7.054;2023-10-19T01:24:39;98916.47;;;11.25;87.62
72925;BME280;61070;50.794;7.054;2023-10-19T01:25:47;98909.91;;;11.19;87.62
72925;BME280;61070;50.794;7.054;2023-10-19T01:26:54;98910.59;;;11.21;88.13
72925;BME280;61070;50.794;7.054;2023-10-19T01:27:56;98911.31;;;11.23;87.67
72925;BME280;61070;50.794;7.054;2023-10-19T01:28:58;98913.56;;;11.28;87.56
72925;BME280;61070;50.794;7.054;2023-10-19T01:30:01;98911.44;;;11.22;87.76
72925;BME280;61070;50.794;7.054;2023-10-19T01:31:03;98915.72;;;11.23;87.71
72925;BME280;61070;50.794;7.054;2023-10-19T01:32:08;98918.13;;;11.26;88.02
72925;BME280;61070;50.794;7.054;2023-10-19T01:33:09;98915.25;;;11.40;87.37
72925;BME280;61070;50.794;7.054;2023-10-19T01:34:12;98919.78;;;11.27;87.42
72925;BME280;61070;50.794;7.054;2023-10-19T01:35:14;98930.09;;;11.30;87.61
72925;BME280;61070;50.794;7.054;2023-10-19T01:36:14;98918.25;;;11.24;87.76
72925;BME280;61070;50.794;7.054;2023-10-19T01:37:24;98919.31;;;11.33;87.58
72925;BME280;61070;50.794;7.054;2023-10-19T01:38:24;98926.63;;;11.29;87.74
72925;BME280;61070;50.794;7.054;2023-10-19T01:39:25;98921.81;;;11.23;87.87
72925;BME280;61070;50.794;7.054;2023-10-19T01:40:25;98926.63;;;11.29;88.07
72925;BME280;61070;50.794;7.054;2023-10-19T01:41:30;98919.31;;;11.22;88.16
72925;BME280;61070;50.794;7.054;2023-10-19T01:42:31;98921.06;;;11.44;87.72
72925;BME280;61070;50.794;7.054;2023-10-19T01:43:31;98924.56;;;11.33;87.68
72925;BME280;61070;50.794;7.054;2023-10-19T01:44:31;98912.47;;;11.53;86.98
72925;BME280;61070;50.794;7.054;2023-10-19T01:45:33;98920.88;;;11.35;87.31
72925;BME280;61070;50.794;7.054;2023-10-19T01:46:34;98918.47;;;11.32;87.75
72925;BME280;61070;50.794;7.054;2023-10-19T01:47:35;98910.56;;;11.44;87.23
72925;BME280;61070;50.794;7.054;2023-10-19T01:48:35;98914.88;;;11.33;87.32
72925;BME280;61070;50.794;7.054;2023-10-19T01:49:38;98912.63;;;11.29;87.56
72925;BME280;61070;50.794;7.054;2023-10-19T01:50:39;98916.19;;;11.28;87.60
72925;BME280;61070;50.794;7.054;2023-10-19T01:51:39;98909.53;;;11.35;88.12
72925;BME280;61070;50.794;7.054;2023-10-19T01:52:40;98900.03;;;11.44;86.98
72925;BME280;61070;50.794;7.054;2023-10-19T01:53:41;98910.69;;;11.42;87.21
72925;BME280;61070;50.794;7.054;2023-10-19T01:54:44;98906.63;;;11.38;87.70
72925;BME280;61070;50.794;7.054;2023-10-19T01:55:45;98905.31;;;11.32;87.77
72925;BME280;61070;50.794;7.054;2023-10-19T01:56:47;98899.50;;;11.29;87.98
72925;BME280;61070;50.794;7.054;2023-10-19T01:57:48;98898.50;;;11.41;87.77
72925;BME280;61070;50.794;7.054;2023-10-19T01:58:49;98904.50;;;11.32;87.67
72925;BME280;61070;50.794;7.054;2023-10-19T01:59:51;98888.94;;;11.40;87.88
72925;BME280;61070;50.794;7.054;2023-10-19T02:00:55;98893.34;;;11.51;87.55
72925;BME280;61070;50.794;7.054;2023-10-19T02:02:00;98888.22;;;11.38;87.68
72925;BME280;61070;50.794;7.054;2023-10-19T02:03:06;98895.75;;;11.43;87.47
72925;BME280;61070;50.794;7.054;2023-10-19T02:04:07;98884.75;;;11.49;87.27
72925;BME280;61070;50.794;7.054;2023-10-19T02:05:09;98889.84;;;11.61;87.05
72925;BME280;61070;50.794;7.054;2023-10-19T02:06:15;98881.03;;;11.51;87.14
72925;BME280;61070;50.794;7.054;2023-10-19T02:07:19;98878.16;;;11.43;87.42
72925;BME280;61070;50.794;7.054;2023-10-19T02:08:20;98882.59;;;11.54;87.50
72925;BME280;61070;50.794;7.054;2023-10-19T02:09:25;98892.59;;;11.60;86.73
72925;BME280;61070;50.794;7.054;2023-10-19T02:10:34;98886.00;;;11.65;86.72
72925;BME280;61070;50.794;7.054;2023-10-19T02:11:36;98887.84;;;11.54;86.85
72925;BME280;61070;50.794;7.054;2023-10-19T02:12:41;98885.13;;;11.44;87.48
72925;BME280;61070;50.794;7.054;2023-10-19T02:13:43;98883.78;;;11.38;87.77
72925;BME280;61070;50.794;7.054;2023-10-19T02:14:46;98886.81;;;11.34;87.98
72925;BME280;61070;50.794;7.054;2023-10-19T02:15:46;98894.44;;;11.37;88.18
72925;BME280;61070;50.794;7.054;2023-10-19T02:16:49;98883.22;;;11.35;88.13
72925;BME280;61070;50.794;7.054;2023-10-19T02:17:52;98887.03;;;11.42;88.16
72925;BME280;61070;50.794;7.054;2023-10-19T02:18:55;98882.84;;;11.39;88.01
72925;BME280;61070;50.794;7.054;2023-10-19T02:19:56;98871.25;;;11.42;88.04
72925;BME280;61070;50.794;7.054;2023-10-19T02:20:58;98869.72;;;11.39;88.12
72925;BME280;61070;50.794;7.054;2023-10-19T02:22:00;98875.44;;;11.45;88.14
72925;BME280;61070;50.794;7.054;2023-10-19T02:23:04;98872.81;;;11.45;87.97
72925;BME280;61070;50.794;7.054;2023-10-19T02:24:10;98876.88;;;11.37;88.28
72925;BME280;61070;50.794;7.054;2023-10-19T02:25:14;98876.03;;;11.37;88.36
72925;BME280;61070;50.794;7.054;2023-10-19T02:26:14;98874.00;;;11.41;88.58
72925;BME280;61070;50.794;7.054;2023-10-19T02:27:15;98878.31;;;11.42;88.51
72925;BME280;61070;50.794;7.054;2023-10-19T02:28:15;98877.34;;;11.43;88.36
72925;BME280;61070;50.794;7.054;2023-10-19T02:29:15;98880.09;;;11.41;88.37
72925;BME280;61070;50.794;7.054;2023-10-19T02:30:15;98880.09;;;11.41;88.53
72925;BME280;61070;50.794;7.054;2023-10-19T02:31:19;98879.00;;;11.44;88.31
72925;BME280;61070;50.794;7.054;2023-10-19T02:32:21;98877.34;;;11.43;88.31
72925;BME280;61070;50.794;7.054;2023-10-19T02:33:24;98889.91;;;11.39;88.35
72925;BME280;61070;50.794;7.054;2023-10-19T02:34:26;98884.88;;;11.36;88.43
72925;BME280;61070;50.794;7.054;2023-10-19T02:35:27;98882.50;;;11.33;88.59
72925;BME280;61070;50.794;7.054;2023-10-19T02:36:28;98886.41;;;11.38;88.61
72925;BME280;61070;50.794;7.054;2023-10-19T02:37:29;98880.34;;;11.38;88.68
72925;BME280;61070;50.794;7.054;2023-10-19T02:38:30;98881.75;;;11.42;88.41
72925;BME280;61070;50.794;7.054;2023-10-19T02:39:30;98884.66;;;11.39;88.45
72925;BME280;61070;50.794;7.054;2023-10-19T02:40:30;98881.44;;;11.35;88.53
72925;BME280;61070;50.794;7.054;2023-10-19T02:41:31;98875.91;;;11.38;88.58
72925;BME280;61070;50.794;7.054;2023-10-19T02:42:35;98881.41;;;11.47;88.17
72925;BME280;61070;50.794;7.054;2023-10-19T02:43:37;98874.97;;;11.39;88.72
72925;BME280;61070;50.794;7.054;2023-10-19T02:44:37;98865.03;;;11.43;88.87
72925;BME280;61070;50.794;7.054;2023-10-19T02:45:38;98870.19;;;11.45;88.93
72925;BME280;61070;50.794;7.054;2023-10-19T02:46:38;98872.22;;;11.41;89.04
72925;BME280;61070;50.794;7.054;2023-10-19T02:47:39;98868.25;;;11.47;88.76
72925;BME280;61070;50.794;7.054;2023-10-19T02:48:41;98873.03;;;11.42;88.88
72925;BME280;61070;50.794;7.054;2023-10-19T02:49:44;98872.44;;;11.38;89.09
72925;BME280;61070;50.794;7.054;2023-10-19T02:50:52;98873.88;;;11.42;89.02
72925;BME280;61070;50.794;7.054;2023-10-19T02:51:53;98871.09;;;11.55;88.74
72925;BME280;61070;50.794;7.054;2023-10-19T02:52:53;98876.28;;;11.45;88.66
72925;BME280;61070;50.794;7.054;2023-10-19T02:53:54;98874.69;;;11.43;88.89
72925;BME280;61070;50.794;7.054;2023-10-19T02:54:54;98862.13;;;11.57;89.08
72925;BME280;61070;50.794;7.054;2023-10-19T02:55:57;98873.47;;;11.58;88.54
72925;BME280;61070;50.794;7.054;2023-10-19T02:57:00;98867.75;;;11.53;88.67
72925;BME280;61070;50.794;7.054;2023-10-19T02:58:00;98866.81;;;11.54;88.77
72925;BME280;61070;50.794;7.054;2023-10-19T02:59:00;98861.91;;;11.49;89.08
72925;BME280;61070;50.794;7.054;2023-10-19T03:00:05;98865.75;;;11.45;89.23
72925;BME280;61070;50.794;7.054;2023-10-19T03:01:15;98861.81;;;11.39;89.49
72925;BME280;61070;50.794;7.054;2023-10-19T03:02:19;98865.97;;;11.42;89.34
72925;BME280;61070;50.794;7.054;2023-10-19T03:03:20;98854.25;;;11.46;89.54
72925;BME280;61070;50.794;7.054;2023-10-19T03:04:20;98861.09;;;11.37;89.51
72925;BME280;61070;50.794;7.054;2023-10-19T03:05:20;98860.38;;;11.35;89.55
72925;BME280;61070;50.794;7.054;2023-10-19T03:06:21;98861.72;;;11.30;89.77
72925;BME280;61070;50.794;7.054;2023-10-19T03:07:22;98865.03;;;11.43;89.78
72925;BME280;61070;50.794;7.054;2023-10-19T03:08:22;98862.28;;;11.33;89.75
72925;BME280;61070;50.794;7.054;2023-10-19T03:09:26;98854.81;;;11.29;89.88
72925;BME280;61070;50.794;7.054;2023-10-19T03:10:26;98864.59;;;11.27;89.95
72925;BME280;61070;50.794;7.054;2023-10-19T03:11:43;98855.53;;;11.20;90.09
72925;BME280;61070;50.794;7.054;2023-10-19T03:12:44;98854.41;;;11.33;90.02
72925;BME280;61070;50.794;7.054;2023-10-19T03:13:45;98858.25;;;11.29;89.99
72925;BME280;61070;50.794;7.054;2023-10-19T03:14:45;98858.13;;;11.31;90.28
72925;BME280;61070;50.794;7.054;2023-10-19T03:15:47;98850.84;;;11.23;90.30
72925;BME280;61070;50.794;7.054;2023-10-19T03:16:48;98851.09;;;11.20;90.43
72925;BME280;61070;50.794;7.054;2023-10-19T03:17:49;98848.72;;;11.17;90.33
72925;BME280;61070;50.794;7.054;2023-10-19T03:18:50;98837.13;;;11.20;90.48
72925;BME280;61070;50.794;7.054;2023-10-19T03:19:50;98836.28;;;11.19;90.34
72925;BME280;61070;50.794;7.054;2023-10-19T03:20:51;98837.59;;;11.13;90.27
72925;BME280;61070;50.794;7.054;2023-10-19T03:21:51;98840.13;;;11.15;90.27
72925;BME280;61070;50.794;7.054;2023-10-19T03:22:52;98838.06;;;11.19;90.36
72925;BME280;61070;50.794;7.054;2023-10-19T03:23:55;98825.06;;;11.17;89.91
72925;BME280;61070;50.794;7.054;2023-10-19T03:24:56;98831.41;;;11.15;89.92
72925;BME280;61070;50.794;7.054;2023-10-19T03:26:20;98825.44;;;11.01;90.03
72925;BME280;61070;50.794;7.054;2023-10-19T03:27:36;98828.53;;;11.06;90.10
72925;BME280;61070;50.794;7.054;2023-10-19T03:28:37;98826.97;;;11.04;90.40
72925;BME280;61070;50.794;7.054;2023-10-19T03:29:41;98826.03;;;11.05;90.45
72925;BME280;61070;50.794;7.054;2023-10-19T03:30:46;98820.88;;;11.03;90.72
72925;BME280;61070;50.794;7.054;2023-10-19T03:31:47;98814.44;;;11.07;90.72
72925;BME280;61070;50.794;7.054;2023-10-19T03:32:47;98819.09;;;11.04;90.80
72925;BME280;61070;50.794;7.054;2023-10-19T03:33:47;98817.69;;;11.00;90.98
72925;BME280;61070;50.794;7.054;2023-10-19T03:34:55;98821.34;;;11.08;91.13
72925;BME280;61070;50.794;7.054;2023-10-19T03:35:55;98814.81;;;11.14;91.06
72925;BME280;61070;50.794;7.054;2023-10-19T03:36:56;98808.69;;;11.13;90.93
72925;BME280;61070;50.794;7.054;2023-10-19T03:37:56;98818.72;;;11.20;90.89
72925;BME280;61070;50.794;7.054;2023-10-19T03:39:00;98817.53;;;11.12;90.89
72925;BME280;61070;50.794;7.054;2023-10-19T03:40:11;98807.47;;;11.29;91.18
72925;BME280;61070;50.794;7.054;2023-10-19T03:41:16;98820.84;;;11.26;90.99
72925;BME280;61070;50.794;7.054;2023-10-19T03:42:21;98811.78;;;11.19;91.02
72925;BME280;61070;50.794;7.054;2023-10-19T03:43:21;98822.53;;;11.27;91.08
72925;BME280;61070;50.794;7.054;2023-10-19T03:44:22;98819.66;;;11.19;91.04
72925;BME280;61070;50.794;7.054;2023-10-19T03:45:23;98822.06;;;11.22;91.10
72925;BME280;61070;50.794;7.054;2023-10-19T03:46:24;98818.09;;;11.27;91.22
72925;BME280;61070;50.794;7.054;2023-10-19T03:47:28;98823.47;;;11.26;90.99
72925;BME280;61070;50.794;7.054;2023-10-19T03:48:34;98820.00;;;11.36;90.94
72925;BME280;61070;50.794;7.054;2023-10-19T03:49:38;98814.88;;;11.35;90.82
72925;BME280;61070;50.794;7.054;2023-10-19T03:50:39;98816.66;;;11.34;90.78
72925;BME280;61070;50.794;7.054;2023-10-19T03:51:40;98812.22;;;11.35;90.86
72925;BME280;61070;50.794;7.054;2023-10-19T03:52:48;98815.88;;;11.44;90.90
72925;BME280;61070;50.794;7.054;2023-10-19T03:53:48;98807.44;;;11.40;90.50
72925;BME280;61070;50.794;7.054;2023-10-19T03:54:55;98805.19;;;11.35;90.46
72925;BME280;61070;50.794;7.054;2023-10-19T03:55:55;98806.38;;;11.31;90.55
72925;BME280;61070;50.794;7.054;2023-10-19T03:56:55;98803.16;;;11.28;90.74
72925;BME280;61070;50.794;7.054;2023-10-19T03:57:57;98803.19;;;11.17;90.44
72925;BME280;61070;50.794;7.054;2023-10-19T03:58:57;98811.31;;;11.13;90.24
72925;BME280;61070;50.794;7.054;2023-10-19T03:59:58;98805.84;;;11.05;90.12
72925;BME280;61070;50.794;7.054;2023-10-19T04:00:59;98799.31;;;11.00;90.28
72925;BME280;61070;50.794;7.054;2023-10-19T04:02:05;98804.06;;;11.06;90.35
72925;BME280;61070;50.794;7.054;2023-10-19T04:03:10;98807.41;;;10.97;90.25
72925;BME280;61070;50.794;7.054;2023-10-19T04:04:10;98803.72;;;10.99;90.24
72925;BME280;61070;50.794;7.054;2023-10-19T04:05:12;98802.28;;;10.95;90.32
72925;BME280;61070;50.794;7.054;2023-10-19T04:06:15;98790.72;;;10.86;90.80
72925;BME280;61070;50.794;7.054;2023-10-19T04:07:16;98806.44;;;10.98;90.51
72925;BME280;61070;50.794;7.054;2023-10-19T04:08:22;98795.13;;;10.86;90.75
72925;BME280;61070;50.794;7.054;2023-10-19T04:09:26;98793.34;;;10.86;90.71
72925;BME280;61070;50.794;7.054;2023-10-19T04:10:29;98795.50;;;10.81;90.25
72925;BME280;61070;50.794;7.054;2023-10-19T04:11:30;98791.78;;;10.95;90.84
72925;BME280;61070;50.794;7.054;2023-10-19T04:12:48;98794.03;;;10.88;90.72
72925;BME280;61070;50.794;7.054;2023-10-19T04:13:49;98784.03;;;10.82;91.06
72925;BME280;61070;50.794;7.054;2023-10-19T04:14:56;98793.22;;;10.88;91.05
72925;BME280;61070;50.794;7.054;2023-10-19T04:15:57;98787.47;;;10.83;91.17
72925;BME280;61070;50.794;7.054;2023-10-19T04:16:57;98789.53;;;10.79;91.28
72925;BME280;61070;50.794;7.054;2023-10-19T04:17:59;98793.31;;;10.98;91.39
72925;BME280;61070;50.794;7.054;2023-10-19T04:19:00;98795.22;;;11.07;91.02
72925;BME280;61070;50.794;7.054;2023-10-19T04:20:04;98798.34;;;11.01;91.02
72925;BME280;61070;50.794;7.054;2023-10-19T04:21:34;98794.75;;;11.02;91.28
72925;BME280;61070;50.794;7.054;2023-10-19T04:22:38;98789.34;;;11.03;91.09
72925;BME280;61070;50.794;7.054;2023-10-19T04:23:39;98788.53;;;11.03;91.26
72925;BME280;61070;50.794;7.054;2023-10-19T04:24:39;98790.69;;;11.09;91.30
72925;BME280;61070;50.794;7.054;2023-10-19T04:25:39;98794.25;;;11.08;91.28
72925;BME280;61070;50.794;7.054;2023-10-19T04:26:40;98791.50;;;11.09;91.39
72925;BME280;61070;50.794;7.054;2023-10-19T04:27:40;98792.34;;;11.10;91.42
72925;BME280;61070;50.794;7.054;2023-10-19T04:28:42;98799.41;;;11.09;91.53
72925;BME280;61070;50.794;7.054;2023-10-19T04:29:45;98795.94;;;11.09;91.72
72925;BME280;61070;50.794;7.054;2023-10-19T04:30:45;98797.25;;;11.15;91.75
72925;BME280;61070;50.794;7.054;2023-10-19T04:31:45;98796.75;;;11.21;91.95
72925;BME280;61070;50.794;7.054;2023-10-19T04:32:54;98795.19;;;11.18;92.00
72925;BME280;61070;50.794;7.054;2023-10-19T04:33:58;98796.69;;;11.32;92.02
72925;BME280;61070;50.794;7.054;2023-10-19T04:34:58;98784.34;;;11.44;91.85
72925;BME280;61070;50.794;7.054;2023-10-19T04:35:58;98787.31;;;11.50;91.71
72925;BME280;61070;50.794;7.054;2023-10-19T04:37:00;98781.41;;;11.58;91.51
72925;BME280;61070;50.794;7.054;2023-10-19T04:38:05;98774.56;;;11.67;91.35
72925;BME280;61070;50.794;7.054;2023-10-19T04:39:08;98782.97;;;11.60;91.09
72925;BME280;61070;50.794;7.054;2023-10-19T04:40:13;98773.13;;;11.62;91.14
72925;BME280;61070;50.794;7.054;2023-10-19T04:41:14;98781.09;;;11.72;90.95
72925;BME280;61070;50.794;7.054;2023-10-19T04:42:15;98783.94;;;11.80;90.96
72925;BME280;61070;50.794;7.054;2023-10-19T04:43:15;98779.03;;;11.87;90.48
72925;BME280;61070;50.794;7.054;2023-10-19T04:44:16;98775.59;;;11.75;90.38
72925;BME280;61070;50.794;7.054;2023-10-19T04:45:17;98774.97;;;11.83;90.39
72925;BME280;61070;50.794;7.054;2023-10-19T04:46:17;98776.16;;;11.90;90.17
72925;BME280;61070;50.794;7.054;2023-10-19T04:47:18;98774.25;;;11.81;90.01
72925;BME280;61070;50.794;7.054;2023-10-19T04:48:19;98783.34;;;11.77;90.12
72925;BME280;61070;50.794;7.054;2023-10-19T04:49:19;98781.31;;;11.80;90.55
72925;BME280;61070;50.794;7.054;2023-10-19T04:50:20;98773.94;;;11.74;90.54
72925;BME280;61070;50.794;7.054;2023-10-19T04:51:20;98780.28;;;11.72;90.60
72925;BME280;61070;50.794;7.054;2023-10-19T04:52:21;98781.31;;;11.80;90.77
72925;BME280;61070;50.794;7.054;2023-10-19T04:53:21;98776.41;;;11.87;90.54
72925;BME280;61070;50.794;7.054;2023-10-19T04:54:22;98781.41;;;11.90;90.38
72925;BME280;61070;50.794;7.054;2023-10-19T04:55:22;98783.47;;;11.86;90.32
72925;BME280;61070;50.794;7.054;2023-10-19T04:56:23;98786.00;;;11.98;90.53
72925;BME280;61070;50.794;7.054;2023-10-19T04:57:23;98775.19;;;11.91;90.13
72925;BME280;61070;50.794;7.054;2023-10-19T04:58:24;98780.44;;;11.91;90.23
72925;BME280;61070;50.794;7.054;2023-10-19T04:59:24;98778.41;;;11.95;90.36
72925;BME280;61070;50.794;7.054;2023-10-19T05:00:24;98784.34;;;11.97;90.23
72925;BME280;61070;50.794;7.054;2023-10-19T05:01:26;98779.38;;;11.94;90.22
72925;BME280;61070;50.794;7.054;2023-10-19T05:02:28;98781.28;;;11.92;90.21
72925;BME280;61070;50.794;7.054;2023-10-19T05:03:28;98785.31;;;11.96;90.48
72925;BME280;61070;50.794;7.054;2023-10-19T05:04:29;98773.44;;;12.01;90.22
72925;BME280;61070;50.794;7.054;2023-10-19T05:05:29;98785.63;;;12.02;90.08
72925;BME280;61070;50.794;7.054;2023-10-19T05:06:30;98779.28;;;12.05;90.04
72925;BME280;61070;50.794;7.054;2023-10-19T05:07:30;98783.72;;;12.04;89.99
72925;BME280;61070;50.794;7.054;2023-10-19T05:08:30;98780.94;;;12.06;90.08
72925;BME280;61070;50.794;7.054;2023-10-19T05:09:32;98787.88;;;12.07;90.07
72925;BME280;61070;50.794;7.054;2023-10-19T05:10:33;98791.88;;;12.01;90.16
72925;BME280;61070;50.794;7.054;2023-10-19T05:11:33;98788.41;;;12.01;90.16
72925;BME280;61070;50.794;7.054;2023-10-19T05:12:33;98781.91;;;12.05;90.25
72925;BME280;61070;50.794;7.054;2023-10-19T05:13:35;98784.81;;;12.02;90.17
72925;BME280;61070;50.794;7.054;2023-10-19T05:14:36;98784.41;;;12.06;90.18
72925;BME280;61070;50.794;7.054;2023-10-19T05:15:36;98785.00;;;12.10;90.44
72925;BME280;61070;50.794;7.054;2023-10-19T05:16:36;98773.63;;;12.09;90.19
72925;BME280;61070;50.794;7.054;2023-10-19T05:17:36;98781.78;;;12.06;90.14
72925;BME280;61070;50.794;7.054;2023-10-19T05:18:37;98780.25;;;12.04;90.40
72925;BME280;61070;50.794;7.054;2023-10-19T05:19:38;98777.47;;;12.05;90.57
72925;BME280;61070;50.794;7.054;2023-10-19T05:20:39;98780.81;;;12.07;90.26
72925;BME280;61070;50.794;7.054;2023-10-19T05:21:40;98773.50;;;12.11;90.37
72925;BME280;61070;50.794;7.054;2023-10-19T05:22:40;98785.38;;;12.05;90.42
72925;BME280;61070;50.794;7.054;2023-10-19T05:23:41;98784.03;;;12.11;90.55
72925;BME280;61070;50.794;7.054;2023-10-19T05:24:41;98784.16;;;12.09;90.53
72925;BME280;61070;50.794;7.054;2023-10-19T05:25:42;98777.25;;;12.18;90.28
72925;BME280;61070;50.794;7.054;2023-10-19T05:26:42;98777.59;;;12.25;90.27
72925;BME280;61070;50.794;7.054;2023-10-19T05:27:43;98777.31;;;12.28;89.87
72925;BME280;61070;50.794;7.054;2023-10-19T05:28:45;98769.41;;;12.28;90.42
72925;BME280;61070;50.794;7.054;2023-10-19T05:29:47;98775.59;;;12.17;90.30
72925;BME280;61070;50.794;7.054;2023-10-19T05:30:48;98767.00;;;12.15;90.16
72925;BME280;61070;50.794;7.054;2023-10-19T05:31:53;98776.31;;;12.19;90.49
72925;BME280;61070;50.794;7.054;2023-10-19T05:32:53;98777.00;;;12.21;90.48
72925;BME280;61070;50.794;7.054;2023-10-19T05:33:55;98773.41;;;12.22;90.22